Terminal Aerodrome Forecast
Issued by NWS Shreveport, LA

Home | Current Version | Previous Version | Text Only | Print | Product List | Glossary On
Versions: 1 2 3 4 5 6 7 8 9 10 11 12 13 14 15 16 17
810
FTUS44 KSHV 181720
TAFTYR
TAF
KTYR 181720Z 1818/1918 19005KT P6SM SCT250
     FM190000 17008KT P6SM BKN050
     FM190500 17006KT P6SM BKN040
     FM191400 19010KT P6SM OVC040=

USA.gov is the U.S. government's official web portal to all federal, state and local government web resources and services.